Share

Kalamata, Greece

10:33 AM EEST on April 24, 2014 (GMT +0300)
Kalamata Air Base (LGKL) Elev 26 ft | 37.07 °N, 22.03 °E | Change Station
Active Advisory: Thunderstorms

Current weather conditions updated 13 minutes ago

Mostly Cloudy
Mostly Cloudy
64 °F
Feels Like 64 °F
N
0
Wind Variable Wind from North
Sunrise 6:46 AM
Sunset 8:14 PM
Moon Waning Crescent

Today is forecast to be Much Cooler than yesterday. Showers early tonight.

Pressure 29.86 in
Visibility 5.0 miles
Clouds Few 500 ft
Scattered Clouds 3000 ft
Mostly Cloudy 8000 ft
Dew Point 57 °F
Humidity 77%
Rainfall 0.00 in
Snow Depth Not available.
UV 3 out of 16
Pollen Not available.
Air Quality Not available.
Flu Activity Not available.
METAR LGKL 240720Z 00000KT 8000 FEW005 SCT030 BKN080 18/14 Q1011

More Conditions Fewer Conditions

Pressure 29.86 in
Visibility 5.0 miles
Clouds Few 500 ft
Scattered Clouds 3000 ft
Mostly Cloudy 8000 ft
Dew Point 57 °F
Humidity 77%
Rainfall 0.00 in
Snow Depth Not available.
UV 3 out of 16
Pollen Not available.
Air Quality Not available.
Flu Activity Not available.
METAR LGKL 240720Z 00000KT 8000 FEW005 SCT030 BKN080 18/14 Q1011

More Conditions Fewer Conditions

10-Day Weather Forecast

Almanac

Astronomy

Apr. 24, 2014 Rise Set
Actual Time 6:46 AM EEST 8:14 PM EEST
Civil Twilight 6:18 AM EEST 8:42 PM EEST
Nautical Twilight 5:46 AM EEST 9:14 PM EEST
Astronomical Twilight 5:11 AM EEST 9:49 PM EEST
Moon 3:37 AM EEST 3:16 PM EEST
Length of Visible Light 14h 23m
Length of Day
13h 28m
Tomorrow will be 2m 9s longer.
Waning Crescent, 28% of the Moon is Illuminated
Today
Waning Crescent
Apr 29
New
May 6
First Quarter
May 14
Full
May 21
Last Quarter

Yesterday's Extremes

Country Highs Country Lows

Community

  • Stacked
    Stacked
  • clouds approaching Red Sox Nation
    clouds approaching Red Sox Nation
  • Balance
    Balance
  • Nestled In
    Nestled In
  • Stunning Sunrise
    Stunning Sunrise

WunderPhotos

Upload Photos

1,704,571 photos uploaded!

WunderBlogs® & News

Nearby

Snow Depth

Not available.

Coastal Water Temperatures

Place Temperature
No Stations Reporting

Earthquake Activity

City Distance Mag. Time & Date
No recent earthquake activity has been reported nearby.
Minimum magnitude displayed is 2.5.

Nearby Weather Stations

Station Location Temp. Dew Point Humidity Wind Precip. Elev Updated Type
Kalamata Center, Kalamata 64.9 °F 58 °F 79% ESE  at  1.0 mph 0.00 in / hr 79 ft 10:31 AM EEST Normal
Mani-Kardamyli, Peloponnisos Dytiki Ellada Ke Ionio 64.2 °F 59 °F 84% WNW  at  1.0 mph 0.00 in / hr 16 ft 10:30 AM EEST Normal

Show More Stations Show Fewer Stations

What do you think?

We're not finished. Please let us know what you like, what you don't like, and what you are still missing.